Time;durP1;ratioP1;P1;durP2;ratioP2;P2;SDS_P1;SDS_P2;PMS_P1;PMS_P2;Temp;Humidity;BMP_temperature;BMP_pressure;BME280_temperature;BME280_humidity;BME280_pressure;Samples;Min_cycle;Max_cycle;Signal;HPM_P1;HPM_P2
2021/07/18 00:00:09;;;;;;;6.00;3.05;;;;;;;17.62;73.40;101056.28;5072372;28;20063;-72
2021/07/18 00:02:39;;;;;;;6.97;3.40;;;;;;;17.59;73.52;101058.94;5078822;28;20469;-73
2021/07/18 00:05:08;;;;;;;5.63;2.65;;;;;;;17.60;73.54;101054.97;5072291;28;20063;-73
2021/07/18 00:07:36;;;;;;;7.72;3.22;;;;;;;17.60;73.57;101058.63;5072298;28;20049;-72
2021/07/18 00:10:04;;;;;;;8.23;3.35;;;;;;;17.59;73.53;101056.13;5065619;28;20056;-72
2021/07/18 00:12:31;;;;;;;7.45;3.40;;;;;;;17.55;73.56;101052.38;5061158;28;20485;-73
2021/07/18 00:14:58;;;;;;;4.43;2.88;;;;;;;17.55;73.67;101055.19;5071530;28;20049;-73
2021/07/18 00:17:26;;;;;;;6.28;3.65;;;;;;;17.54;73.88;101050.72;5065941;28;20052;-73
2021/07/18 00:19:53;;;;;;;7.00;3.25;;;;;;;17.49;73.98;101054.59;5070315;28;20049;-73
2021/07/18 00:22:22;;;;;;;6.22;3.15;;;;;;;17.51;73.97;101057.03;5072438;28;20064;-73
2021/07/18 00:24:49;;;;;;;5.75;3.45;;;;;;;17.40;74.23;101063.13;5071259;28;20063;-73
2021/07/18 00:27:17;;;;;;;5.95;3.40;;;;;;;17.37;74.38;101061.00;5072729;28;20462;-73
2021/07/18 00:29:44;;;;;;;4.28;3.13;;;;;;;17.40;74.30;101056.66;5075420;28;20071;-73
2021/07/18 00:32:11;;;;;;;9.32;3.53;;;;;;;17.36;74.53;101056.53;5075418;28;20056;-73
2021/07/18 00:34:39;;;;;;;7.00;3.63;;;;;;;17.40;74.69;101059.47;5075347;28;20071;-73
2021/07/18 00:37:06;;;;;;;6.45;3.63;;;;;;;17.37;74.60;101057.38;5066605;28;20056;-73
2021/07/18 00:39:35;;;;;;;7.68;3.85;;;;;;;17.35;74.53;101054.91;5072136;28;20044;-73
2021/07/18 00:42:03;;;;;;;7.28;3.53;;;;;;;17.30;74.79;101057.91;5075175;28;20065;-73
2021/07/18 00:44:31;;;;;;;4.72;3.58;;;;;;;17.26;74.98;101062.63;5075640;28;20201;-72
2021/07/18 00:46:58;;;;;;;6.03;3.53;;;;;;;17.24;75.03;101059.31;5075271;28;20048;-72
2021/07/18 00:49:25;;;;;;;6.97;4.10;;;;;;;17.23;74.92;101061.28;5074886;28;20063;-72
2021/07/18 00:51:53;;;;;;;10.13;4.05;;;;;;;17.22;74.82;101067.28;5074968;28;20048;-72
2021/07/18 00:54:20;;;;;;;5.93;3.53;;;;;;;17.23;74.83;101063.28;5074543;28;20071;-72
2021/07/18 00:56:49;;;;;;;8.05;3.80;;;;;;;17.20;74.88;101064.00;5075247;28;20059;-72
2021/07/18 00:59:17;;;;;;;6.80;4.25;;;;;;;17.14;74.89;101066.19;5075055;28;20075;-72
2021/07/18 01:01:47;;;;;;;4.65;3.53;;;;;;;17.15;75.19;101059.38;5073634;28;20057;-71
2021/07/18 01:04:14;;;;;;;6.00;3.97;;;;;;;17.16;75.12;101057.41;5054520;28;20063;-71
2021/07/18 01:06:42;;;;;;;7.60;3.53;;;;;;;17.16;75.29;101054.59;5054644;28;20409;-72
2021/07/18 01:09:09;;;;;;;5.68;3.85;;;;;;;17.14;75.03;101059.75;5061458;28;20405;-72
2021/07/18 01:11:37;;;;;;;6.30;3.97;;;;;;;17.10;75.17;101053.16;5074874;28;20493;-71
2021/07/18 01:14:06;;;;;;;5.13;3.67;;;;;;;17.08;75.25;101058.31;5075124;28;20052;-72
2021/07/18 01:16:34;;;;;;;;;;;;;;;17.00;75.48;101048.75;5074909;28;20055;-71
2021/07/18 01:19:01;;;;;;;6.05;3.58;;;;;;;17.04;75.47;101056.16;5066193;28;19925;-71
2021/07/18 01:21:30;;;;;;;6.07;3.70;;;;;;;17.01;75.29;101048.41;5074818;28;20058;-71
2021/07/18 01:23:59;;;;;;;6.97;3.78;;;;;;;16.94;75.75;101050.94;5069810;28;20044;-71
2021/07/18 01:26:27;;;;;;;5.70;3.67;;;;;;;16.95;75.63;101055.41;5074206;28;20057;-72
2021/07/18 01:28:58;;;;;;;7.60;4.50;;;;;;;16.93;75.68;101043.69;5073939;28;20075;-72
2021/07/18 01:31:26;;;;;;;6.40;4.47;;;;;;;16.96;75.80;101048.59;5074243;28;20413;-72
2021/07/18 01:33:53;;;;;;;8.75;4.47;;;;;;;16.98;75.61;101042.66;5091663;28;20056;-72
2021/07/18 01:36:20;;;;;;;7.53;4.47;;;;;;;16.93;75.74;101038.06;5092172;28;20048;-71
2021/07/18 01:38:47;;;;;;;8.40;4.80;;;;;;;16.90;75.75;101044.34;5073398;28;20049;-71
2021/07/18 01:41:16;;;;;;;6.88;4.35;;;;;;;16.88;76.03;101037.44;5071787;28;20052;-71
2021/07/18 01:43:44;;;;;;;8.13;4.57;;;;;;;16.86;75.97;101042.56;5071264;28;20055;-71
2021/07/18 01:46:11;;;;;;;7.90;4.55;;;;;;;16.81;75.93;101049.25;5073909;28;20056;-71
2021/07/18 01:48:41;;;;;;;10.07;5.20;;;;;;;16.81;76.24;101040.78;5074607;28;20493;-71
2021/07/18 01:51:08;;;;;;;10.25;5.32;;;;;;;16.81;76.12;101046.44;5073385;28;20056;-71
2021/07/18 01:53:36;;;;;;;7.50;5.20;;;;;;;16.77;76.34;101040.63;5073555;28;20497;-72
2021/07/18 01:56:03;;;;;;;10.25;6.07;;;;;;;16.78;76.42;101041.47;5073757;28;20048;-71
2021/07/18 01:58:32;;;;;;;9.32;5.50;;;;;;;16.78;76.49;101047.09;5074142;28;20465;-71
2021/07/18 02:00:59;;;;;;;10.02;5.75;;;;;;;16.77;76.42;101048.25;5073731;28;20500;-71
2021/07/18 02:03:27;;;;;;;9.88;5.70;;;;;;;16.77;76.46;101051.06;5073770;28;20056;-71
2021/07/18 02:05:54;;;;;;;10.23;5.55;;;;;;;16.76;76.38;101055.06;5073592;28;20059;-71
2021/07/18 02:08:21;;;;;;;8.48;5.70;;;;;;;16.75;76.37;101047.75;5073100;28;20059;-71
2021/07/18 02:10:49;;;;;;;9.23;6.18;;;;;;;16.74;76.35;101046.13;5073157;28;20060;-71
2021/07/18 02:13:17;;;;;;;9.82;5.65;;;;;;;16.66;76.80;101047.81;5073764;28;20053;-71
2021/07/18 02:15:47;;;;;;;8.97;6.03;;;;;;;16.63;76.22;101046.53;5073911;28;20056;-71
2021/07/18 02:18:15;;;;;;;10.27;6.03;;;;;;;16.62;76.26;101047.69;5073268;28;20512;-71
2021/07/18 02:20:43;;;;;;;10.02;6.20;;;;;;;16.60;76.45;101047.19;5073461;28;20059;-71
2021/07/18 02:23:10;;;;;;;14.38;5.93;;;;;;;16.55;76.52;101047.41;5073361;28;20048;-71
2021/07/18 02:25:38;;;;;;;8.43;4.43;;;;;;;16.57;76.36;101044.25;5072950;28;20063;-72
2021/07/18 02:28:06;;;;;;;8.95;4.63;;;;;;;16.56;76.03;101045.41;5074021;28;20052;-72
2021/07/18 02:30:33;;;;;;;6.85;4.38;;;;;;;16.55;75.67;101044.59;5073558;28;20045;-72
2021/07/18 02:33:02;;;;;;;9.00;4.50;;;;;;;16.51;75.91;101038.00;5073461;28;20481;-72
2021/07/18 02:35:29;;;;;;;13.00;6.00;;;;;;;16.47;75.95;101037.03;5073128;28;20056;-72
2021/07/18 02:37:56;;;;;;;8.77;5.03;;;;;;;16.45;76.03;101033.75;5073496;28;20462;-72
2021/07/18 02:40:25;;;;;;;9.15;4.90;;;;;;;16.47;75.82;101036.22;5071851;28;20523;-72
2021/07/18 02:42:52;;;;;;;7.82;4.60;;;;;;;16.42;76.03;101032.44;5073578;28;20059;-72
2021/07/18 02:45:21;;;;;;;9.48;4.88;;;;;;;16.46;75.74;101035.38;5073481;28;20049;-72
2021/07/18 02:47:48;;;;;;;8.85;5.15;;;;;;;16.42;75.39;101034.41;5072904;28;20063;-72
2021/07/18 02:50:22;;;;;;;9.52;4.78;;;;;;;16.36;75.51;101028.19;5072384;28;20048;-72
2021/07/18 02:52:50;;;;;;;8.38;4.38;;;;;;;16.33;75.46;101025.22;5072909;28;20053;-71
2021/07/18 02:55:19;;;;;;;8.00;4.50;;;;;;;16.28;75.83;101033.84;5072687;28;20075;-71
2021/07/18 02:57:46;;;;;;;7.93;5.03;;;;;;;16.23;75.76;101037.66;5072008;28;20052;-72
2021/07/18 03:00:16;;;;;;;7.55;4.70;;;;;;;16.21;76.17;101031.56;5073087;28;20048;-72
2021/07/18 03:02:45;;;;;;;9.20;4.90;;;;;;;16.18;76.08;101029.44;5073194;28;20478;-72
2021/07/18 03:05:14;;;;;;;9.68;5.28;;;;;;;16.14;76.23;101042.50;5072497;28;20056;-72
2021/07/18 03:07:44;;;;;;;7.95;5.65;;;;;;;16.05;76.87;101024.88;5072554;28;20512;-72
2021/07/18 03:10:13;;;;;;;8.25;5.40;;;;;;;16.07;76.40;101029.00;5072720;28;20493;-72
2021/07/18 03:12:41;;;;;;;8.45;5.30;;;;;;;16.02;76.80;101029.16;5072421;28;20504;-72
2021/07/18 03:15:12;;;;;;;8.40;5.25;;;;;;;16.05;76.76;101033.31;5072404;28;20477;-72
2021/07/18 03:17:40;;;;;;;10.55;5.90;;;;;;;16.07;76.77;101025.38;5072631;28;20048;-72
2021/07/18 03:20:10;;;;;;;8.27;5.30;;;;;;;16.06;76.42;101032.13;5064222;28;20048;-72
2021/07/18 03:22:38;;;;;;;7.80;5.15;;;;;;;16.03;76.22;101028.84;5072305;28;20056;-72
2021/07/18 03:25:08;;;;;;;8.68;5.35;;;;;;;16.05;76.30;101025.69;5071921;28;20052;-72
2021/07/18 03:27:36;;;;;;;10.38;6.75;;;;;;;16.02;76.65;101030.00;5072274;28;20503;-72
2021/07/18 03:30:07;;;;;;;9.90;5.60;;;;;;;16.05;76.56;101027.69;5072296;28;20048;-72
2021/07/18 03:32:37;;;;;;;7.95;5.00;;;;;;;16.05;76.42;101027.69;5072379;28;20044;-72
2021/07/18 03:35:06;;;;;;;7.38;4.95;;;;;;;16.06;75.99;101021.72;5072145;28;20052;-72
2021/07/18 03:37:33;;;;;;;8.48;4.93;;;;;;;16.05;76.10;101017.28;5064978;28;20076;-72
2021/07/18 03:40:01;;;;;;;9.27;5.78;;;;;;;16.04;75.96;101026.84;5070632;28;20055;-72
2021/07/18 03:42:30;;;;;;;7.40;4.82;;;;;;;16.03;75.92;101023.22;5071855;28;20469;-72
2021/07/18 03:44:57;;;;;;;10.90;4.70;;;;;;;15.99;75.81;101025.06;5072727;28;20066;-72
2021/07/18 03:47:24;;;;;;;7.07;5.18;;;;;;;15.96;76.06;101034.19;5072597;28;20056;-72
2021/07/18 03:49:52;;;;;;;7.32;4.82;;;;;;;15.87;76.35;101029.75;5072380;28;20052;-72
2021/07/18 03:52:19;;;;;;;7.68;5.05;;;;;;;15.91;76.29;101025.91;5072594;28;20056;-72
2021/07/18 03:54:47;;;;;;;7.35;5.00;;;;;;;15.94;76.17;101027.25;5071257;28;20493;-72
2021/07/18 03:57:14;;;;;;;9.23;4.88;;;;;;;15.96;76.06;101025.75;5071826;28;20492;-72
2021/07/18 03:59:43;;;;;;;9.82;5.85;;;;;;;16.00;75.92;101034.31;5072267;28;20068;-72
2021/07/18 04:02:10;;;;;;;12.50;5.00;;;;;;;16.00;75.91;101028.69;5072642;28;20056;-72
2021/07/18 04:04:38;;;;;;;9.00;4.65;;;;;;;16.02;75.55;101029.16;5076269;28;20063;-72
2021/07/18 04:07:05;;;;;;;10.10;5.22;;;;;;;16.03;75.69;101036.47;5075834;28;20060;-72
2021/07/18 04:09:32;;;;;;;8.73;4.88;;;;;;;16.04;76.00;101035.28;5075098;28;20048;-72
2021/07/18 04:12:00;;;;;;;10.25;5.43;;;;;;;16.10;75.84;101033.13;5075558;28;20147;-72
2021/07/18 04:14:28;;;;;;;10.20;5.50;;;;;;;16.12;75.99;101031.59;5075681;28;20405;-72
2021/07/18 04:16:56;;;;;;;9.35;5.40;;;;;;;16.18;75.84;101032.25;5075297;28;20511;-72
2021/07/18 04:19:23;;;;;;;9.40;5.63;;;;;;;16.19;75.63;101028.25;5075861;28;20056;-72
2021/07/18 04:21:51;;;;;;;8.60;5.35;;;;;;;16.27;75.53;101029.38;5075746;28;20052;-72
2021/07/18 04:24:18;;;;;;;20.65;6.28;;;;;;;16.26;75.43;101030.56;5075345;28;20059;-72
2021/07/18 04:26:45;;;;;;;9.18;5.20;;;;;;;16.28;75.58;101023.44;5075154;28;20057;-72
2021/07/18 04:29:15;;;;;;;12.32;6.60;;;;;;;16.29;75.83;101029.88;5068178;28;20409;-72
2021/07/18 04:31:42;;;;;;;;;;;;;;;16.30;75.93;101028.72;5075638;28;20489;-72
2021/07/18 04:34:11;;;;;;;11.30;6.05;;;;;;;16.36;75.88;101024.56;5067868;28;19925;-72
2021/07/18 04:36:38;;;;;;;8.53;5.07;;;;;;;16.43;75.67;101027.63;5075332;28;20052;-72
2021/07/18 04:39:05;;;;;;;9.50;6.00;;;;;;;16.49;75.62;101034.72;5074840;28;20478;-72
2021/07/18 04:41:34;;;;;;;10.05;5.00;;;;;;;16.54;75.66;101034.50;5075224;28;20049;-72
2021/07/18 04:44:02;;;;;;;9.45;5.55;;;;;;;16.61;75.47;101031.16;5075356;28;20052;-72
2021/07/18 04:46:29;;;;;;;12.45;5.97;;;;;;;16.68;75.24;101039.06;5075181;28;20053;-72
2021/07/18 04:48:57;;;;;;;7.65;5.22;;;;;;;16.74;75.11;101038.50;5074937;28;20386;-72
2021/07/18 04:51:25;;;;;;;8.50;5.25;;;;;;;16.81;75.19;101046.44;5075145;28;20061;-72
2021/07/18 04:53:53;;;;;;;7.30;5.10;;;;;;;16.88;75.03;101038.25;5074726;28;20417;-72
2021/07/18 04:56:21;;;;;;;10.00;5.32;;;;;;;16.97;74.76;101050.28;5074858;28;20377;-72
2021/07/18 04:58:49;;;;;;;11.30;5.95;;;;;;;17.04;74.85;101050.53;5074918;28;20052;-72
2021/07/18 05:01:16;;;;;;;10.13;5.75;;;;;;;17.10;74.75;101045.53;5074826;28;20048;-72
2021/07/18 05:03:44;;;;;;;11.82;5.47;;;;;;;17.16;74.92;101049.78;5075092;28;20057;-72
2021/07/18 05:06:11;;;;;;;9.82;6.03;;;;;;;17.24;74.80;101050.88;5074575;28;20067;-72
2021/07/18 05:08:40;;;;;;;10.27;5.47;;;;;;;17.33;74.72;101060.03;5074115;28;20052;-71
2021/07/18 05:11:08;;;;;;;10.50;5.80;;;;;;;17.42;74.45;101059.97;5074923;28;20476;-71
2021/07/18 05:13:35;;;;;;;11.32;6.97;;;;;;;17.52;74.23;101055.91;5074414;28;20412;-71
2021/07/18 05:16:02;;;;;;;9.45;7.07;;;;;;;17.59;74.37;101061.78;5074448;28;20057;-72
2021/07/18 05:18:30;;;;;;;12.00;7.78;;;;;;;17.68;74.56;101059.69;5074520;28;20052;-71
2021/07/18 05:20:57;;;;;;;13.82;8.30;;;;;;;17.75;74.29;101057.13;5074747;28;20059;-71
2021/07/18 05:23:26;;;;;;;12.35;7.53;;;;;;;17.78;74.26;101062.03;5074126;28;20048;-71
2021/07/18 05:25:55;;;;;;;10.75;6.88;;;;;;;17.81;74.29;101063.38;5074518;28;20049;-71
2021/07/18 05:28:22;;;;;;;7.78;6.60;;;;;;;17.93;74.09;101069.06;5074517;28;20048;-72
2021/07/18 05:30:50;;;;;;;12.25;5.88;;;;;;;18.01;73.71;101062.47;5074438;28;20053;-71
2021/07/18 05:33:17;;;;;;;11.02;6.10;;;;;;;18.10;73.55;101061.53;5074818;28;20056;-71
2021/07/18 05:35:44;;;;;;;8.73;6.25;;;;;;;18.22;73.34;101064.38;5074263;28;20501;-71
2021/07/18 05:38:12;;;;;;;10.77;6.25;;;;;;;18.29;73.19;101060.94;5072948;28;20052;-72
2021/07/18 05:40:39;;;;;;;11.07;6.47;;;;;;;18.36;73.00;101064.84;5074838;28;20048;-72
2021/07/18 05:43:08;;;;;;;9.98;6.90;;;;;;;18.44;73.08;101063.09;5074107;28;20052;-72
2021/07/18 05:45:35;;;;;;;11.43;6.10;;;;;;;18.55;72.95;101055.78;5087673;28;20060;-72
2021/07/18 05:48:03;;;;;;;8.85;6.18;;;;;;;18.65;72.57;101060.94;5093925;28;20400;-72
2021/07/18 05:50:30;;;;;;;9.93;7.15;;;;;;;18.77;72.60;101064.91;5094410;28;20405;-72
2021/07/18 05:52:58;;;;;;;10.38;7.22;;;;;;;18.91;72.22;101073.84;5087233;28;20375;-72
2021/07/18 05:55:25;;;;;;;9.27;7.40;;;;;;;19.00;71.82;101068.91;5073732;28;20056;-72
2021/07/18 05:57:53;;;;;;;9.63;7.60;;;;;;;19.14;71.52;101062.03;5073987;28;20504;-72
2021/07/18 06:00:22;;;;;;;11.13;7.10;;;;;;;19.26;71.47;101056.31;5074010;28;20052;-72
2021/07/18 06:02:49;;;;;;;9.65;6.80;;;;;;;19.32;70.99;101057.72;5073679;28;20048;-72
2021/07/18 06:05:17;;;;;;;11.05;6.85;;;;;;;19.43;70.97;101060.84;5074356;28;20489;-72
2021/07/18 06:07:47;;;;;;;8.48;6.78;;;;;;;19.39;71.22;101057.91;5073297;28;20048;-72
2021/07/18 06:10:14;;;;;;;10.20;7.07;;;;;;;19.52;71.22;101058.66;5073113;28;20048;-72
2021/07/18 06:12:41;;;;;;;9.90;6.97;;;;;;;19.59;70.91;101063.69;5073687;28;20060;-72
2021/07/18 06:15:09;;;;;;;8.90;6.60;;;;;;;19.76;70.32;101060.56;5073959;28;20051;-72
2021/07/18 06:17:39;;;;;;;10.95;7.00;;;;;;;19.91;70.10;101063.75;5074166;28;20074;-72
2021/07/18 06:20:09;;;;;;;11.80;8.07;;;;;;;19.99;69.89;101059.94;5073285;28;20049;-71
2021/07/18 06:22:37;;;;;;;11.48;7.60;;;;;;;20.08;69.43;101064.22;5073335;28;20044;-71
2021/07/18 06:25:09;;;;;;;9.27;7.47;;;;;;;20.23;69.03;101061.75;5072185;28;20048;-71
2021/07/18 06:27:39;;;;;;;9.63;7.25;;;;;;;20.35;68.28;101060.81;5072859;28;20493;-71
2021/07/18 06:30:10;;;;;;;12.20;7.25;;;;;;;20.37;68.19;101062.13;5073667;28;20045;-71
2021/07/18 06:32:39;;;;;;;9.02;7.38;;;;;;;20.47;67.90;101058.72;5073327;28;20053;-72
2021/07/18 06:35:09;;;;;;;10.82;7.47;;;;;;;20.62;67.32;101059.91;5073732;28;20067;-71
2021/07/18 06:37:36;;;;;;;8.77;7.13;;;;;;;20.78;66.73;101061.88;5073099;28;20052;-71
2021/07/18 06:40:07;;;;;;;9.73;6.60;;;;;;;20.84;66.92;101055.53;5073167;28;20436;-71
2021/07/18 06:42:35;;;;;;;10.00;6.97;;;;;;;20.95;66.75;101061.44;5072258;28;20068;-71
2021/07/18 06:45:04;;;;;;;10.57;6.20;;;;;;;20.96;65.77;101054.59;5073067;28;20059;-71
2021/07/18 06:47:31;;;;;;;8.50;6.30;;;;;;;21.11;65.23;101063.41;5073116;28;20510;-71
2021/07/18 06:50:00;;;;;;;9.20;5.82;;;;;;;21.25;64.30;101063.69;5073139;28;20048;-71
2021/07/18 06:52:28;;;;;;;7.60;6.15;;;;;;;21.35;63.68;101060.25;5093025;28;20057;-71
2021/07/18 06:54:56;;;;;;;8.68;5.40;;;;;;;21.49;63.63;101051.25;5093435;28;20063;-72
2021/07/18 06:57:23;;;;;;;9.27;5.45;;;;;;;21.48;63.12;101072.28;5089664;28;20404;-72
2021/07/18 06:59:51;;;;;;;7.22;4.95;;;;;;;21.59;63.13;101066.84;5068576;28;20051;-72
2021/07/18 07:02:18;;;;;;;6.95;4.60;;;;;;;21.66;62.96;101066.97;5072962;28;20045;-71
2021/07/18 07:04:45;;;;;;;6.43;4.20;;;;;;;21.74;61.56;101056.59;5072877;28;20526;-71
2021/07/18 07:07:14;;;;;;;9.68;4.70;;;;;;;21.82;61.39;101067.69;5072151;28;20048;-71
2021/07/18 07:09:42;;;;;;;5.78;4.32;;;;;;;22.01;60.64;101066.00;5072695;28;20072;-71
2021/07/18 07:12:09;;;;;;;8.05;4.20;;;;;;;22.08;60.00;101068.94;5072448;28;20056;-71
2021/07/18 07:14:37;;;;;;;5.47;3.83;;;;;;;22.16;60.07;101067.06;5072672;28;20049;-71
2021/07/18 07:17:05;;;;;;;6.85;3.55;;;;;;;22.10;60.41;101060.88;5072401;28;20449;-72
2021/07/18 07:19:33;;;;;;;5.20;3.65;;;;;;;22.26;59.93;101067.28;5072868;28;20504;-72
2021/07/18 07:22:00;;;;;;;7.07;3.72;;;;;;;22.43;58.55;101065.09;5071798;28;20056;-72
2021/07/18 07:24:29;;;;;;;6.90;3.80;;;;;;;22.55;58.45;101067.69;5072384;28;20059;-72
2021/07/18 07:26:57;;;;;;;5.70;3.58;;;;;;;22.68;58.38;101066.31;5071814;28;20048;-72
2021/07/18 07:29:24;;;;;;;6.03;3.53;;;;;;;22.83;57.91;101073.00;5068363;28;20060;-72
2021/07/18 07:31:51;;;;;;;4.60;3.20;;;;;;;22.86;57.30;101068.56;5069631;28;20048;-71
2021/07/18 07:34:19;;;;;;;4.47;3.50;;;;;;;22.98;58.73;101076.88;5072501;28;20044;-71
2021/07/18 07:36:46;;;;;;;4.40;3.30;;;;;;;23.15;57.66;101066.97;5072441;28;20072;-71
2021/07/18 07:39:14;;;;;;;5.45;3.05;;;;;;;23.23;56.48;101062.19;5065156;28;20064;-71
2021/07/18 07:41:42;;;;;;;5.80;2.90;;;;;;;23.37;56.83;101068.06;5069964;28;20063;-72
2021/07/18 07:44:10;;;;;;;4.25;3.20;;;;;;;23.55;55.89;101053.22;5075101;28;20071;-71
2021/07/18 07:46:37;;;;;;;6.28;3.80;;;;;;;23.71;55.20;101062.34;5076486;28;20485;-71
2021/07/18 07:49:05;;;;;;;7.57;3.78;;;;;;;23.80;54.53;101060.03;5075677;28;20056;-71
2021/07/18 07:51:33;;;;;;;5.88;2.83;;;;;;;24.27;53.36;101058.44;5076330;28;20048;-71
2021/07/18 07:54:00;;;;;;;4.85;2.40;;;;;;;25.22;52.96;101067.19;5076682;28;20060;-71
2021/07/18 07:56:27;;;;;;;3.92;2.42;;;;;;;26.39;48.06;101064.16;5076460;28;20056;-71
2021/07/18 07:58:59;;;;;;;4.00;2.20;;;;;;;27.30;45.04;101061.53;5076571;28;20056;-71
2021/07/18 08:01:26;;;;;;;4.63;2.30;;;;;;;28.04;42.25;101063.56;5076098;28;20049;-72
2021/07/18 08:03:53;;;;;;;4.05;2.10;;;;;;;28.74;40.83;101060.50;5071350;28;20041;-72
2021/07/18 08:06:21;;;;;;;3.13;2.10;;;;;;;29.57;39.70;101048.84;5076057;28;20063;-72
2021/07/18 08:08:48;;;;;;;2.65;1.92;;;;;;;30.27;37.82;101039.53;5069269;28;20053;-72
2021/07/18 08:11:19;;;;;;;3.53;1.88;;;;;;;31.03;36.24;101038.97;5063285;28;20395;-72
2021/07/18 08:13:46;;;;;;;3.80;2.05;;;;;;;31.64;34.44;101042.63;5074915;28;20059;-72
2021/07/18 08:16:15;;;;;;;4.80;2.60;;;;;;;32.32;33.77;101043.88;5072861;28;20053;-72
2021/07/18 08:18:42;;;;;;;5.85;2.33;;;;;;;33.04;31.79;101042.72;5076037;28;20052;-72
2021/07/18 08:21:09;;;;;;;4.00;2.30;;;;;;;33.37;30.29;101039.72;5075911;28;20048;-72
2021/07/18 08:23:37;;;;;;;3.33;1.90;;;;;;;34.14;29.56;101037.66;5075663;28;20473;-73
2021/07/18 08:26:08;;;;;;;2.47;1.83;;;;;;;34.60;28.66;101031.53;5075543;28;20413;-73
2021/07/18 08:28:38;;;;;;;5.47;2.00;;;;;;;35.23;27.61;101034.63;5059396;28;20053;-73
2021/07/18 08:31:05;;;;;;;3.80;2.20;;;;;;;35.80;27.79;101026.56;5084793;28;20048;-73
2021/07/18 08:33:34;;;;;;;4.28;2.20;;;;;;;36.40;26.43;101030.31;5096195;28;20044;-73
2021/07/18 08:36:02;;;;;;;3.25;2.05;;;;;;;36.89;25.80;101033.06;5095745;28;20389;-73
2021/07/18 08:38:30;;;;;;;3.92;1.70;;;;;;;37.28;25.86;101041.28;5089650;28;20048;-73
2021/07/18 08:40:58;;;;;;;3.17;2.00;;;;;;;37.78;24.77;101024.34;5074831;28;20381;-73
2021/07/18 08:43:26;;;;;;;2.65;1.90;;;;;;;37.84;24.63;101027.34;5074514;28;20063;-73
2021/07/18 08:45:54;;;;;;;2.92;1.75;;;;;;;38.78;22.72;101019.13;5075861;28;20060;-73
2021/07/18 08:48:24;;;;;;;2.22;1.80;;;;;;;38.95;22.25;101019.50;5075370;28;20059;-73
2021/07/18 08:50:53;;;;;;;4.05;1.98;;;;;;;39.66;21.43;101008.03;5073972;28;20063;-74
2021/07/18 08:53:25;;;;;;;4.45;1.90;;;;;;;40.03;20.70;101012.59;5073156;28;20508;-74
2021/07/18 08:55:53;;;;;;;2.13;1.60;;;;;;;40.38;21.98;101007.53;5071360;28;20057;-59
2021/07/18 08:58:21;;;;;;;5.35;2.13;;;;;;;40.88;20.70;101017.41;5075269;28;20060;-59
2021/07/18 09:00:49;;;;;;;3.40;2.20;;;;;;;40.98;20.60;101015.94;5072123;28;20053;-59
2021/07/18 09:03:16;;;;;;;3.50;1.83;;;;;;;40.36;21.33;101007.25;5070987;28;20048;-59
2021/07/18 09:05:44;;;;;;;3.70;2.40;;;;;;;36.17;26.07;101020.91;5072016;28;20056;-59
2021/07/18 09:08:20;;;;;;;4.35;2.35;;;;;;;36.29;25.09;101019.16;5071538;28;20059;-61
2021/07/18 09:10:48;;;;;;;3.65;1.80;;;;;;;36.92;24.71;101013.88;5051717;28;20532;-61
2021/07/18 09:13:19;;;;;;;2.80;1.65;;;;;;;36.47;25.15;101013.38;5066540;28;20484;-61
2021/07/18 09:15:48;;;;;;;5.93;2.15;;;;;;;35.86;25.93;101010.16;5073951;28;20044;-60
2021/07/18 09:18:17;;;;;;;3.10;2.10;;;;;;;37.62;24.49;101010.19;5073769;28;20040;-61
2021/07/18 09:20:46;;;;;;;3.30;2.10;;;;;;;38.62;22.66;101005.06;5071930;28;20052;-61
2021/07/18 09:23:16;;;;;;;4.68;1.92;;;;;;;39.01;21.64;100998.41;5071313;28;20044;-58
2021/07/18 09:25:45;;;;;;;3.42;2.10;;;;;;;40.11;20.60;100996.25;5072407;28;20048;-61
2021/07/18 09:28:14;;;;;;;2.67;2.00;;;;;;;40.34;20.90;101001.13;5073549;28;20060;-61
2021/07/18 09:30:42;;;;;;;4.05;2.50;;;;;;;40.57;19.81;100992.59;5072185;28;20512;-59
2021/07/18 09:33:22;;;;;;;2.45;2.10;;;;;;;40.15;20.39;100996.81;5072495;28;20382;-61
2021/07/18 09:35:50;;;;;;;3.08;2.33;;;;;;;41.28;19.20;100998.16;5074302;28;20067;-60
2021/07/18 09:38:24;;;;;;;4.80;2.15;;;;;;;42.03;18.89;100998.22;5071440;28;20049;-59
2021/07/18 09:41:00;;;;;;;4.40;2.40;;;;;;;42.33;18.21;100996.50;5071299;28;20516;-58
2021/07/18 09:43:29;;;;;;;3.55;2.17;;;;;;;42.58;18.41;100997.69;5064716;28;20052;-59
2021/07/18 09:45:59;;;;;;;2.72;2.10;;;;;;;43.09;17.72;100994.91;5072236;28;20052;-62
2021/07/18 09:48:39;;;;;;;3.15;2.30;;;;;;;43.56;17.36;101001.03;5073479;28;20048;-59
2021/07/18 09:51:12;;;;;;;2.85;2.03;;;;;;;44.34;17.26;100995.53;5070136;28;20485;-73
2021/07/18 09:53:41;;;;;;;4.25;2.13;;;;;;;44.72;16.12;100990.81;5074449;28;20079;-73
2021/07/18 09:56:11;;;;;;;3.05;2.30;;;;;;;45.77;15.19;100986.00;5070399;28;20049;-73
2021/07/18 09:58:40;;;;;;;4.20;2.10;;;;;;;46.22;14.59;100987.66;5074627;28;20052;-73
2021/07/18 10:01:17;;;;;;;3.35;2.03;;;;;;;46.58;14.83;100991.22;5071165;28;20457;-73
2021/07/18 10:03:47;;;;;;;2.67;2.00;;;;;;;46.92;14.18;100990.75;5072598;28;20040;-73
2021/07/18 10:06:16;;;;;;;2.58;1.80;;;;;;;47.52;13.23;100969.63;5071941;28;20044;-73
2021/07/18 10:08:45;;;;;;;2.97;2.22;;;;;;;47.45;13.58;100982.06;5071797;28;20056;-74
2021/07/18 10:11:16;;;;;;;2.20;2.00;;;;;;;48.36;12.39;100972.25;5070189;28;20055;-73
2021/07/18 10:13:44;;;;;;;3.65;1.77;;;;;;;48.78;12.47;100973.19;5057718;28;20055;-73
2021/07/18 10:16:17;;;;;;;2.45;1.92;;;;;;;48.87;12.30;100968.97;5064950;28;20511;-74
2021/07/18 10:18:47;;;;;;;3.22;2.22;;;;;;;48.87;12.24;100968.97;5070519;28;20056;-75
2021/07/18 10:21:18;;;;;;;2.65;1.90;;;;;;;49.40;11.63;100962.00;5071522;28;20053;-74
2021/07/18 10:23:47;;;;;;;3.35;1.83;;;;;;;49.16;12.03;100963.94;5065616;28;20055;-74
2021/07/18 10:26:18;;;;;;;2.40;1.80;;;;;;;49.80;11.62;100961.72;5070979;28;20049;-75
2021/07/18 10:28:47;;;;;;;2.13;1.92;;;;;;;49.62;11.39;100966.50;5073320;28;20400;-75
2021/07/18 10:31:19;;;;;;;2.10;1.90;;;;;;;50.12;10.47;100969.44;5073516;28;20053;-75
2021/07/18 10:33:49;;;;;;;1.92;1.73;;;;;;;50.09;11.08;100967.66;5073266;28;20048;-75
2021/07/18 10:36:21;;;;;;;2.05;1.65;;;;;;;50.50;10.44;100962.91;5073129;28;20060;-75
2021/07/18 10:38:48;;;;;;;1.70;1.60;;;;;;;50.43;10.79;100958.53;5073771;28;20045;-75
2021/07/18 10:41:17;;;;;;;2.75;1.80;;;;;;;50.42;10.29;100959.91;5073480;28;20049;-75
2021/07/18 10:43:48;;;;;;;3.15;1.88;;;;;;;50.53;10.65;100958.78;5072951;28;20045;-75
2021/07/18 10:46:16;;;;;;;3.05;2.03;;;;;;;50.21;10.59;100954.06;5073064;28;20485;-75
2021/07/18 10:48:48;;;;;;;1.88;1.60;;;;;;;50.05;11.81;100950.22;5073805;28;20045;-75
2021/07/18 10:51:17;;;;;;;5.00;2.38;;;;;;;50.31;10.73;100951.34;5073454;28;20512;-75
2021/07/18 10:53:46;;;;;;;3.70;1.92;;;;;;;49.57;10.97;100959.38;5073274;28;20060;-75
2021/07/18 10:56:20;;;;;;;2.90;1.90;;;;;;;50.10;10.53;100951.44;5073656;28;20131;-75
2021/07/18 10:58:53;;;;;;;2.10;1.90;;;;;;;50.40;11.07;100947.03;5073152;28;20049;-75
2021/07/18 11:01:40;;;;;;;2.60;2.28;;;;;;;50.41;10.67;100948.66;5073077;28;20061;-75
2021/07/18 11:04:28;;;;;;;;;;;;;;;50.49;11.02;100946.50;5073133;28;20048;-75
2021/07/18 11:07:24;;;;;;;2.55;1.80;;;;;;;50.18;10.94;100952.28;5092771;28;19927;-75
2021/07/18 11:09:54;;;;;;;2.45;1.83;;;;;;;50.25;10.70;100945.59;5072799;28;20060;-75
2021/07/18 11:12:25;;;;;;;2.47;2.00;;;;;;;50.63;10.14;100941.19;5072357;28;20059;-75
2021/07/18 11:14:53;;;;;;;3.20;2.00;;;;;;;50.63;10.60;100936.03;5072989;28;20480;-75
2021/07/18 11:17:28;;;;;;;2.45;1.60;;;;;;;50.29;11.58;100937.09;5072630;28;20056;-75
2021/07/18 11:19:58;;;;;;;2.35;2.13;;;;;;;50.00;11.44;100929.63;5072901;28;20055;-75
2021/07/18 11:22:59;;;;;;;2.58;2.03;;;;;;;50.34;11.48;100926.44;5071755;28;20473;-74
2021/07/18 11:25:47;;;;;;;2.58;1.85;;;;;;;50.86;10.61;100924.25;5069424;28;20401;-74
2021/07/18 11:28:39;;;;;;;2.65;1.80;;;;;;;50.56;10.45;100913.09;5072622;28;20052;-74
2021/07/18 11:31:18;;;;;;;2.72;1.80;;;;;;;50.97;10.26;100917.16;5072255;28;20464;-74